createdAt,value
2022-12-25T00:01:32.436Z,93.70
2022-12-25T00:03:59.666Z,93.60
2022-12-25T00:06:26.505Z,93.60
2022-12-25T00:08:53.319Z,93.60
2022-12-25T00:11:23.420Z,93.60
2022-12-25T00:13:51.036Z,93.70
2022-12-25T00:16:26.872Z,93.60
2022-12-25T00:18:56.014Z,93.60
2022-12-25T00:21:23.069Z,93.50
2022-12-25T00:23:58.452Z,93.40
2022-12-25T00:26:26.818Z,93.40
2022-12-25T00:28:57.393Z,93.50
2022-12-25T00:31:25.158Z,93.50
2022-12-25T00:33:54.599Z,93.50
2022-12-25T00:36:22.943Z,93.50
2022-12-25T00:38:49.740Z,93.50
2022-12-25T00:41:40.146Z,93.40
2022-12-25T00:44:10.786Z,93.30
2022-12-25T00:46:37.717Z,93.30
2022-12-25T00:49:08.051Z,93.20
2022-12-25T00:51:34.947Z,93.20
2022-12-25T00:54:07.898Z,93.20
2022-12-25T00:56:35.666Z,93.30
2022-12-25T00:59:02.724Z,93.30
2022-12-25T01:01:30.172Z,93.30
2022-12-25T01:03:57.741Z,93.30
2022-12-25T01:06:24.977Z,93.30
2022-12-25T01:09:11.244Z,93.30
2022-12-25T01:11:41.007Z,93.30
2022-12-25T01:14:11.099Z,93.30
2022-12-25T01:16:38.674Z,93.30
2022-12-25T01:19:05.468Z,93.40
2022-12-25T01:21:32.788Z,93.40
2022-12-25T01:24:02.424Z,93.50
2022-12-25T01:26:29.177Z,93.50
2022-12-25T01:28:56.008Z,93.50
2022-12-25T01:31:24.732Z,93.60
2022-12-25T01:33:52.903Z,93.60
2022-12-25T01:36:25.315Z,93.70
2022-12-25T01:38:53.407Z,93.80
2022-12-25T01:41:22.278Z,93.70
2022-12-25T01:43:59.816Z,93.70
2022-12-25T01:46:26.758Z,93.50
2022-12-25T01:48:57.809Z,93.50
2022-12-25T01:51:35.941Z,93.50
2022-12-25T01:54:09.931Z,93.50
2022-12-25T01:56:39.317Z,93.50
2022-12-25T01:59:07.989Z,93.50
2022-12-25T02:01:37.110Z,93.50
2022-12-25T02:04:16.417Z,93.50
2022-12-25T02:06:43.255Z,93.50
2022-12-25T02:09:10.420Z,93.40
2022-12-25T02:11:55.843Z,93.40
2022-12-25T02:14:23.356Z,93.40
2022-12-25T02:16:59.010Z,93.40
2022-12-25T02:19:39.329Z,93.40
2022-12-25T02:22:33.096Z,93.40
2022-12-25T02:25:26.857Z,93.40
2022-12-25T02:27:56.782Z,93.50
2022-12-25T02:30:23.756Z,93.50
2022-12-25T02:33:23.239Z,93.40
2022-12-25T02:35:55.551Z,93.50
2022-12-25T02:38:35.014Z,93.50
2022-12-25T02:41:10.153Z,93.50
2022-12-25T02:44:00.205Z,93.50
2022-12-25T02:46:50.163Z,93.60
2022-12-25T02:49:42.537Z,93.60
2022-12-25T02:52:31.583Z,93.60
2022-12-25T02:55:23.420Z,93.60
2022-12-25T02:58:12.649Z,93.60
2022-12-25T03:01:02.340Z,93.70
2022-12-25T03:03:51.441Z,93.60
2022-12-25T03:06:39.135Z,93.70
2022-12-25T03:09:27.864Z,93.70
2022-12-25T03:12:00.193Z,93.70
2022-12-25T03:14:46.716Z,93.70
2022-12-25T03:17:13.843Z,93.70
2022-12-25T03:19:59.730Z,93.70
2022-12-25T03:22:47.565Z,93.70
2022-12-25T03:25:34.300Z,93.70
2022-12-25T03:28:04.685Z,93.80
2022-12-25T03:31:00.292Z,93.70
2022-12-25T03:33:48.421Z,93.70
2022-12-25T03:36:33.121Z,93.80
2022-12-25T03:39:16.246Z,93.80
2022-12-25T03:42:06.320Z,93.80
2022-12-25T03:44:54.339Z,93.80
2022-12-25T03:47:49.045Z,93.80
2022-12-25T03:50:40.949Z,93.80
2022-12-25T03:53:33.379Z,93.80
2022-12-25T03:56:19.613Z,93.80
2022-12-25T03:59:23.243Z,93.90
2022-12-25T04:02:10.445Z,93.90
2022-12-25T04:04:58.299Z,93.90
2022-12-25T04:07:43.758Z,93.90
2022-12-25T04:10:29.127Z,93.90
2022-12-25T04:13:14.968Z,93.80
2022-12-25T04:16:01.613Z,93.80
2022-12-25T04:18:49.464Z,93.80
2022-12-25T04:21:36.638Z,93.90
2022-12-25T04:24:24.951Z,93.90
2022-12-25T04:27:10.395Z,93.90
2022-12-25T04:30:09.534Z,93.90
2022-12-25T04:32:55.326Z,93.80
2022-12-25T04:35:41.020Z,93.90
2022-12-25T04:38:07.860Z,93.90
2022-12-25T04:40:35.213Z,93.90
2022-12-25T04:43:04.777Z,93.90
2022-12-25T04:45:32.330Z,93.90
2022-12-25T04:48:01.449Z,93.80
2022-12-25T04:50:28.313Z,93.90
2022-12-25T04:52:55.093Z,93.90
2022-12-25T04:55:26.768Z,93.90
2022-12-25T04:57:56.008Z,93.90
2022-12-25T05:00:23.126Z,94.10
2022-12-25T05:02:50.203Z,93.80
2022-12-25T05:05:17.250Z,93.80
2022-12-25T05:07:44.547Z,93.80
2022-12-25T05:10:14.062Z,93.80
2022-12-25T05:12:40.824Z,93.80
2022-12-25T05:15:08.180Z,93.80
2022-12-25T05:17:35.111Z,93.80
2022-12-25T05:20:03.504Z,93.80
2022-12-25T05:22:31.521Z,93.80
2022-12-25T05:24:58.398Z,93.80
2022-12-25T05:27:25.340Z,93.80
2022-12-25T05:29:54.477Z,93.80
2022-12-25T05:32:21.197Z,93.80
2022-12-25T05:34:50.263Z,93.80
2022-12-25T05:37:17.139Z,93.80
2022-12-25T05:39:43.895Z,93.80
2022-12-25T05:42:10.800Z,93.80
2022-12-25T05:44:37.665Z,93.80
2022-12-25T05:47:06.676Z,93.70
2022-12-25T05:49:33.485Z,93.70
2022-12-25T05:52:06.714Z,93.70
2022-12-25T05:54:34.552Z,93.70
2022-12-25T05:57:02.421Z,93.60
2022-12-25T05:59:31.237Z,93.60
2022-12-25T06:02:00.283Z,93.60
2022-12-25T06:04:27.445Z,93.50
2022-12-25T06:06:54.343Z,93.50
2022-12-25T06:09:23.298Z,93.50
2022-12-25T06:11:50.573Z,93.50
2022-12-25T06:14:17.361Z,93.50
2022-12-25T06:16:46.555Z,93.50
2022-12-25T06:19:13.565Z,93.50
2022-12-25T06:21:40.602Z,93.60
2022-12-25T06:24:07.553Z,93.60
2022-12-25T06:26:37.627Z,93.60
2022-12-25T06:29:06.678Z,93.50
2022-12-25T06:31:36.597Z,93.50
2022-12-25T06:34:05.200Z,93.50
2022-12-25T06:36:33.303Z,93.50
2022-12-25T06:39:01.494Z,93.40
2022-12-25T06:41:33.751Z,93.40
2022-12-25T06:44:02.191Z,93.40
2022-12-25T06:46:31.452Z,93.50
2022-12-25T06:48:59.569Z,93.40
2022-12-25T06:51:29.126Z,93.40
2022-12-25T06:53:56.770Z,93.40
2022-12-25T06:56:26.892Z,93.40
2022-12-25T06:58:57.013Z,93.40
2022-12-25T07:02:07.197Z,93.40
2022-12-25T07:04:39.373Z,93.50
2022-12-25T07:07:10.877Z,93.50
2022-12-25T07:09:42.418Z,93.40
2022-12-25T07:12:20.368Z,93.40
2022-12-25T07:14:50.021Z,93.50
2022-12-25T07:17:17.872Z,93.50
2022-12-25T07:19:46.803Z,93.40
2022-12-25T07:22:17.670Z,93.40
2022-12-25T07:24:45.812Z,93.30
2022-12-25T07:27:12.598Z,93.20
2022-12-25T07:29:41.963Z,93.10
2022-12-25T07:32:08.925Z,93.00
2022-12-25T07:34:35.937Z,92.90
2022-12-25T07:37:03.073Z,92.80
2022-12-25T07:39:30.236Z,92.70
2022-12-25T07:41:57.839Z,92.60
2022-12-25T07:44:27.981Z,92.50
2022-12-25T07:46:54.777Z,92.50
2022-12-25T07:49:21.679Z,92.30
2022-12-25T07:51:49.171Z,92.20
2022-12-25T07:54:18.231Z,92.00
2022-12-25T07:56:45.448Z,92.10
2022-12-25T07:59:12.270Z,92.00
2022-12-25T08:01:41.990Z,92.00
2022-12-25T08:04:11.891Z,92.00
2022-12-25T08:06:38.952Z,92.00
2022-12-25T08:09:11.556Z,91.90
2022-12-25T08:11:39.178Z,91.80
2022-12-25T08:14:07.605Z,91.70
2022-12-25T08:16:35.162Z,91.70
2022-12-25T08:19:02.950Z,91.60
2022-12-25T08:21:32.586Z,91.60
2022-12-25T08:24:03.038Z,91.60
2022-12-25T08:26:30.355Z,91.50
2022-12-25T08:28:58.030Z,91.50
2022-12-25T08:31:28.488Z,91.50
2022-12-25T08:34:02.625Z,91.50
2022-12-25T08:36:29.506Z,91.50
2022-12-25T08:39:02.742Z,91.40
2022-12-25T08:41:31.431Z,91.10
2022-12-25T08:43:58.737Z,91.10
2022-12-25T08:46:30.238Z,91.00
2022-12-25T08:48:58.256Z,91.00
2022-12-25T08:51:26.384Z,90.90
2022-12-25T08:53:57.849Z,90.90
2022-12-25T08:56:27.127Z,90.80
2022-12-25T08:58:54.437Z,90.70
2022-12-25T09:01:21.572Z,90.70
2022-12-25T09:03:50.855Z,90.60
2022-12-25T09:06:17.871Z,90.50
2022-12-25T09:08:49.171Z,90.30
2022-12-25T09:11:19.470Z,90.20
2022-12-25T09:13:47.743Z,90.10
2022-12-25T09:16:18.098Z,90.00
2022-12-25T09:18:45.381Z,90.10
2022-12-25T09:21:16.095Z,90.20
2022-12-25T09:23:43.470Z,90.30
2022-12-25T09:26:17.201Z,90.50
2022-12-25T09:28:50.558Z,90.60
2022-12-25T09:31:22.548Z,90.40
2022-12-25T09:33:50.734Z,90.10
2022-12-25T09:36:17.993Z,90.10
2022-12-25T09:38:45.102Z,90.10
2022-12-25T09:41:25.204Z,90.00
2022-12-25T09:44:02.601Z,90.00
2022-12-25T09:46:39.414Z,90.00
2022-12-25T09:49:55.340Z,90.00
2022-12-25T09:52:51.420Z,89.80
2022-12-25T09:55:21.100Z,89.70
2022-12-25T09:57:58.754Z,90.00
2022-12-25T10:00:40.740Z,90.00
2022-12-25T10:03:37.248Z,90.10
2022-12-25T10:06:15.552Z,90.10
2022-12-25T10:08:57.442Z,90.30
2022-12-25T10:11:58.594Z,90.50
2022-12-25T10:14:43.573Z,90.60
2022-12-25T10:17:39.085Z,90.50
2022-12-25T10:20:28.324Z,90.60
2022-12-25T10:23:00.680Z,90.60
2022-12-25T10:25:28.257Z,90.50
2022-12-25T10:28:05.735Z,90.40
2022-12-25T10:30:32.806Z,90.30
2022-12-25T10:33:02.689Z,90.30
2022-12-25T10:35:31.599Z,90.30
2022-12-25T10:38:09.746Z,90.20
2022-12-25T10:41:19.052Z,90.20
2022-12-25T10:43:53.542Z,90.40
2022-12-25T10:46:28.242Z,90.70
2022-12-25T10:49:01.166Z,90.80
2022-12-25T10:51:29.962Z,90.80
2022-12-25T10:53:56.937Z,90.60
2022-12-25T10:56:26.004Z,90.50
2022-12-25T10:59:05.380Z,90.50
2022-12-25T11:01:33.283Z,90.60
2022-12-25T11:04:00.379Z,90.50
2022-12-25T11:06:33.536Z,90.40
2022-12-25T11:09:05.035Z,90.40
2022-12-25T11:11:35.642Z,90.30
2022-12-25T11:14:03.140Z,90.40
2022-12-25T11:16:34.386Z,90.50
2022-12-25T11:19:02.531Z,90.60
2022-12-25T11:21:32.524Z,90.30
2022-12-25T11:24:00.999Z,89.00
2022-12-25T11:26:30.129Z,89.10
2022-12-25T11:28:58.157Z,88.70
2022-12-25T11:31:37.599Z,88.40
2022-12-25T11:34:30.044Z,88.40
2022-12-25T11:37:03.819Z,88.40
2022-12-25T11:39:37.200Z,87.60
2022-12-25T11:42:04.086Z,88.00
2022-12-25T11:45:15.573Z,87.80
2022-12-25T11:47:56.464Z,86.70
2022-12-25T11:50:34.036Z,87.20
2022-12-25T11:53:05.052Z,88.00
2022-12-25T11:55:43.068Z,89.10
2022-12-25T11:58:38.984Z,87.80
2022-12-25T12:01:25.039Z,87.30
2022-12-25T12:03:52.384Z,87.00
2022-12-25T12:06:42.921Z,86.60
2022-12-25T12:09:57.593Z,85.80
2022-12-25T12:12:50.754Z,85.70
2022-12-25T12:15:24.724Z,86.00
2022-12-25T12:17:54.777Z,86.40
2022-12-25T12:20:37.125Z,86.50
2022-12-25T12:23:12.370Z,86.30
2022-12-25T12:25:43.321Z,86.10
2022-12-25T12:28:29.665Z,86.50
2022-12-25T12:31:07.183Z,86.40
2022-12-25T12:33:40.789Z,86.10
2022-12-25T12:36:13.160Z,86.00
2022-12-25T12:38:43.547Z,86.30
2022-12-25T12:41:13.845Z,86.10
2022-12-25T12:43:46.463Z,85.80
2022-12-25T12:46:24.401Z,85.80
2022-12-25T12:49:11.342Z,85.90
2022-12-25T12:51:40.925Z,85.90
2022-12-25T12:54:22.784Z,85.50
2022-12-25T12:57:03.617Z,85.60
2022-12-25T12:59:46.914Z,86.30
2022-12-25T13:02:19.946Z,86.60
2022-12-25T13:05:09.234Z,86.70
2022-12-25T13:07:50.027Z,87.00
2022-12-25T13:10:37.287Z,87.70
2022-12-25T13:13:15.303Z,88.10
2022-12-25T13:15:47.317Z,88.30
2022-12-25T13:18:14.879Z,88.80
2022-12-25T13:20:49.611Z,88.70
2022-12-25T13:23:28.896Z,88.70
2022-12-25T13:25:58.571Z,89.00
2022-12-25T13:28:33.236Z,90.10
2022-12-25T13:31:05.580Z,90.30
2022-12-25T13:33:33.623Z,90.50
2022-12-25T13:36:01.401Z,90.70
2022-12-25T13:38:29.580Z,90.70
2022-12-25T13:41:33.340Z,90.60
2022-12-25T13:44:00.609Z,89.40
2022-12-25T13:46:30.258Z,88.50
2022-12-25T13:49:01.352Z,88.30
2022-12-25T13:51:28.422Z,87.90
2022-12-25T13:54:15.372Z,87.60
2022-12-25T13:56:55.228Z,87.30
2022-12-25T13:59:25.377Z,87.40
2022-12-25T14:01:54.273Z,87.20
2022-12-25T14:04:24.106Z,87.40
2022-12-25T14:06:52.293Z,87.50
2022-12-25T14:09:20.096Z,87.70
2022-12-25T14:11:51.432Z,87.70
2022-12-25T14:14:24.184Z,87.70
2022-12-25T14:16:56.102Z,87.90
2022-12-25T14:19:30.485Z,88.20
2022-12-25T14:22:11.582Z,88.50
2022-12-25T14:24:41.947Z,88.70
2022-12-25T14:27:17.867Z,89.00
2022-12-25T14:29:46.688Z,89.20
2022-12-25T14:32:22.674Z,89.20
2022-12-25T14:34:52.785Z,90.10
2022-12-25T14:37:23.595Z,90.10
2022-12-25T14:40:20.133Z,90.10
2022-12-25T14:43:05.375Z,90.10
2022-12-25T14:45:40.338Z,90.20
2022-12-25T14:48:25.326Z,90.30
2022-12-25T14:51:12.001Z,90.40
2022-12-25T14:53:47.409Z,90.40
2022-12-25T14:56:20.177Z,90.40
2022-12-25T14:59:02.882Z,90.40
2022-12-25T15:01:33.896Z,90.30
2022-12-25T15:04:27.587Z,90.30
2022-12-25T15:06:59.436Z,90.40
2022-12-25T15:09:30.955Z,90.30
2022-12-25T15:11:57.879Z,90.30
2022-12-25T15:14:26.395Z,90.40
2022-12-25T15:17:01.232Z,90.30
2022-12-25T15:19:37.997Z,90.40
2022-12-25T15:22:07.556Z,90.30
2022-12-25T15:24:34.429Z,90.30
2022-12-25T15:27:01.966Z,90.50
2022-12-25T15:32:22.693Z,90.40
2022-12-25T15:34:50.409Z,90.40
2022-12-25T15:37:20.294Z,90.40
2022-12-25T15:39:47.298Z,90.20
2022-12-25T15:42:16.912Z,90.20
2022-12-25T15:44:45.159Z,90.20
2022-12-25T15:47:15.729Z,90.20
2022-12-25T15:49:43.228Z,90.30
2022-12-25T15:52:15.539Z,90.20
2022-12-25T15:54:42.772Z,90.20
2022-12-25T15:57:19.608Z,89.30
2022-12-25T15:59:46.534Z,89.20
2022-12-25T16:02:19.163Z,89.00
2022-12-25T16:04:46.389Z,88.90
2022-12-25T16:07:22.948Z,88.70
2022-12-25T16:09:50.979Z,88.60
2022-12-25T16:12:18.657Z,88.50
2022-12-25T16:14:45.454Z,88.30
2022-12-25T16:17:16.402Z,88.50
2022-12-25T16:19:44.831Z,88.40
2022-12-25T16:22:14.627Z,88.40
2022-12-25T16:24:41.381Z,88.30
2022-12-25T16:27:08.467Z,88.40
2022-12-25T16:29:35.273Z,88.50
2022-12-25T16:32:03.258Z,89.30
2022-12-25T16:34:31.517Z,90.00
2022-12-25T16:37:01.176Z,90.00
2022-12-25T16:39:28.669Z,90.00
2022-12-25T16:41:58.105Z,90.10
2022-12-25T16:44:25.032Z,90.30
2022-12-25T16:46:51.961Z,90.60
2022-12-25T16:49:18.770Z,90.90
2022-12-25T16:51:48.213Z,90.90
2022-12-25T16:54:17.574Z,91.10
2022-12-25T16:56:44.316Z,91.20
2022-12-25T16:59:11.487Z,91.20
2022-12-25T17:01:43.162Z,91.20
2022-12-25T17:04:10.318Z,91.30
2022-12-25T17:06:37.685Z,91.20
2022-12-25T17:09:07.449Z,91.20
2022-12-25T17:11:34.260Z,91.10
2022-12-25T17:14:04.026Z,91.00
2022-12-25T17:16:36.255Z,90.80
2022-12-25T17:19:17.813Z,90.70
2022-12-25T17:21:46.546Z,90.60
2022-12-25T17:24:14.606Z,90.50
2022-12-25T17:26:43.853Z,90.40
2022-12-25T17:29:14.665Z,90.40
2022-12-25T17:31:45.608Z,90.50
2022-12-25T17:34:16.126Z,90.50
2022-12-25T17:36:43.093Z,90.70
2022-12-25T17:39:10.590Z,90.60
2022-12-25T17:41:40.532Z,90.60
2022-12-25T17:44:07.321Z,90.60
2022-12-25T17:46:41.711Z,90.60
2022-12-25T17:49:15.430Z,90.60
2022-12-25T17:51:42.171Z,90.60
2022-12-25T17:54:10.107Z,90.60
2022-12-25T17:56:37.547Z,90.60
2022-12-25T17:59:08.017Z,90.70
2022-12-25T18:01:37.763Z,90.20
2022-12-25T18:04:06.261Z,90.50
2022-12-25T18:06:35.891Z,90.60
2022-12-25T18:09:06.011Z,90.60
2022-12-25T18:11:34.068Z,90.20
2022-12-25T18:14:09.650Z,90.10
2022-12-25T18:16:40.385Z,90.00
2022-12-25T18:19:07.337Z,89.70
2022-12-25T18:21:36.510Z,89.60
2022-12-25T18:24:05.269Z,89.50
2022-12-25T18:26:33.758Z,89.70
2022-12-25T18:29:00.622Z,90.00
2022-12-25T18:31:30.614Z,90.00
2022-12-25T18:33:59.194Z,90.10
2022-12-25T18:36:28.616Z,90.20
2022-12-25T18:38:57.622Z,90.20
2022-12-25T18:41:24.884Z,90.20
2022-12-25T18:43:55.589Z,90.20
2022-12-25T18:46:27.337Z,90.20
2022-12-25T18:48:58.099Z,90.20
2022-12-25T18:51:28.710Z,90.20
2022-12-25T18:54:02.390Z,90.20
2022-12-25T18:56:32.449Z,90.20
2022-12-25T18:59:01.361Z,90.20
2022-12-25T19:01:28.445Z,90.20
2022-12-25T19:04:02.118Z,90.30
2022-12-25T19:06:33.373Z,90.30
2022-12-25T19:09:01.744Z,90.40
2022-12-25T19:11:28.607Z,90.30
2022-12-25T19:13:56.552Z,90.30
2022-12-25T19:16:23.762Z,90.20
2022-12-25T19:18:50.731Z,90.20
2022-12-25T19:21:17.988Z,90.20
2022-12-25T19:23:44.929Z,90.20
2022-12-25T19:26:12.367Z,90.20
2022-12-25T19:28:39.857Z,90.20
2022-12-25T19:31:07.952Z,90.40
2022-12-25T19:33:36.486Z,90.10
2022-12-25T19:36:05.902Z,90.10
2022-12-25T19:38:33.203Z,90.10
2022-12-25T19:41:04.750Z,90.10
2022-12-25T19:43:34.696Z,90.70
2022-12-25T19:46:03.971Z,90.40
2022-12-25T19:48:33.835Z,90.30
2022-12-25T19:51:01.228Z,90.40
2022-12-25T19:53:30.166Z,90.30
2022-12-25T19:56:03.561Z,90.30
2022-12-25T19:58:33.079Z,90.20
2022-12-25T20:01:02.539Z,90.30
2022-12-25T20:03:29.704Z,90.40
2022-12-25T20:05:56.936Z,90.40
2022-12-25T20:08:24.829Z,90.40
2022-12-25T20:10:52.314Z,90.50
2022-12-25T20:13:19.382Z,91.00
2022-12-25T20:15:46.717Z,90.50
2022-12-25T20:18:14.556Z,91.00
2022-12-25T20:20:43.673Z,91.10
2022-12-25T20:23:10.806Z,90.70
2022-12-25T20:25:41.078Z,90.40
2022-12-25T20:28:08.339Z,90.50
2022-12-25T20:30:41.069Z,90.50
2022-12-25T20:33:10.841Z,90.90
2022-12-25T20:35:37.649Z,91.00
2022-12-25T20:38:06.888Z,91.00
2022-12-25T20:40:53.016Z,90.90
2022-12-25T20:43:22.069Z,90.90
2022-12-25T20:45:52.660Z,90.50
2022-12-25T20:48:21.855Z,90.90
2022-12-25T20:50:49.940Z,91.00
2022-12-25T20:53:17.457Z,91.10
2022-12-25T20:55:45.955Z,91.10
2022-12-25T20:58:14.143Z,90.50
2022-12-25T21:00:42.305Z,90.30
2022-12-25T21:03:09.797Z,90.20
2022-12-25T21:05:49.708Z,90.30
2022-12-25T21:08:17.913Z,90.40
2022-12-25T21:10:50.254Z,91.00
2022-12-25T21:13:21.514Z,91.00
2022-12-25T21:15:50.036Z,91.20
2022-12-25T21:18:18.692Z,90.60
2022-12-25T21:20:51.568Z,90.50
2022-12-25T21:23:19.138Z,90.90
2022-12-25T21:25:47.266Z,90.90
2022-12-25T21:28:16.795Z,90.90
2022-12-25T21:30:43.893Z,90.90
2022-12-25T21:33:31.980Z,90.90
2022-12-25T21:36:10.214Z,90.70
2022-12-25T21:38:38.012Z,90.70
2022-12-25T21:41:10.591Z,90.70
2022-12-25T21:43:38.769Z,90.60
2022-12-25T21:46:14.735Z,90.40
2022-12-25T21:48:42.641Z,90.40
2022-12-25T21:51:37.761Z,90.30
2022-12-25T21:54:05.771Z,90.10
2022-12-25T21:56:43.107Z,89.10
2022-12-25T21:59:12.817Z,88.70
2022-12-25T22:01:39.819Z,88.00
2022-12-25T22:04:09.440Z,87.50
2022-12-25T22:06:55.259Z,87.00
2022-12-25T22:09:22.803Z,86.90
2022-12-25T22:12:12.864Z,86.00
2022-12-25T22:15:02.708Z,85.90
2022-12-25T22:17:51.905Z,85.40
2022-12-25T22:20:25.434Z,84.80
2022-12-25T22:22:53.405Z,84.70
2022-12-25T22:25:20.967Z,84.60
2022-12-25T22:27:53.003Z,84.60
2022-12-25T22:30:25.825Z,84.60
2022-12-25T22:32:53.063Z,84.50
2022-12-25T22:35:20.801Z,84.10
2022-12-25T22:37:48.153Z,84.20
2022-12-25T22:40:19.818Z,84.20
2022-12-25T22:42:46.953Z,84.10
2022-12-25T22:45:14.879Z,84.40
2022-12-25T22:47:41.938Z,83.90
2022-12-25T22:50:14.502Z,83.90
2022-12-25T22:52:42.411Z,84.00
2022-12-25T22:55:12.296Z,84.00
2022-12-25T22:57:41.563Z,84.20
2022-12-25T23:00:09.276Z,84.20
2022-12-25T23:02:38.629Z,84.30
2022-12-25T23:05:06.189Z,84.20
2022-12-25T23:07:33.127Z,84.30
2022-12-25T23:10:00.114Z,84.30
2022-12-25T23:12:45.763Z,84.60
2022-12-25T23:15:12.578Z,84.50
2022-12-25T23:18:01.065Z,84.10
2022-12-25T23:20:46.172Z,84.30
2022-12-25T23:23:34.941Z,84.20
2022-12-25T23:26:09.395Z,83.90
2022-12-25T23:28:56.651Z,84.00
2022-12-25T23:31:32.542Z,84.10
2022-12-25T23:34:01.886Z,84.30
2022-12-25T23:36:28.768Z,84.40
2022-12-25T23:38:55.577Z,84.40
2022-12-25T23:41:22.407Z,84.60
2022-12-25T23:43:49.315Z,84.90
2022-12-25T23:46:16.861Z,84.80
2022-12-25T23:48:43.754Z,84.90
2022-12-25T23:51:11.104Z,84.60
2022-12-25T23:53:37.949Z,84.50
2022-12-25T23:56:05.114Z,84.50
2022-12-25T23:58:35.903Z,84.50
